Time;durP1;ratioP1;P1;durP2;ratioP2;P2;SDS_P1;SDS_P2;PMS_P1;PMS_P2;Temp;Humidity;BMP_temperature;BMP_pressure;BME280_temperature;BME280_humidity;BME280_pressure;Samples;Min_cycle;Max_cycle;Signal;HPM_P1;HPM_P2
2023/02/07 00:00:33;;;;;;;35.90;16.13;;;;;;;-2.47;100.00;100878.56;4192025;28;20079;-74
2023/02/07 00:02:34;;;;;;;30.65;15.77;;;;;;;-2.51;100.00;100890.91;4193575;28;20040;-74
2023/02/07 00:04:34;;;;;;;33.35;14.82;;;;;;;-2.50;100.00;100887.97;4193138;28;20052;-74
2023/02/07 00:06:35;;;;;;;26.80;13.95;;;;;;;-2.55;100.00;100883.28;4191849;28;20510;-73
2023/02/07 00:08:37;;;;;;;31.85;15.60;;;;;;;-2.52;100.00;100875.72;4196346;28;20068;-74
2023/02/07 00:10:37;;;;;;;25.63;13.57;;;;;;;-2.55;100.00;100867.00;4192631;28;20080;-74
2023/02/07 00:12:38;;;;;;;30.17;15.68;;;;;;;-2.57;100.00;100857.44;4190958;28;20122;-74
2023/02/07 00:14:38;;;;;;;27.60;13.73;;;;;;;-2.64;100.00;100854.84;4192261;28;20070;-74
2023/02/07 00:16:39;;;;;;;29.65;14.98;;;;;;;-2.66;100.00;100858.84;4191374;28;20049;-73
2023/02/07 00:18:40;;;;;;;33.53;17.38;;;;;;;-2.69;100.00;100859.31;4192365;28;20492;-73
2023/02/07 00:20:41;;;;;;;31.65;15.77;;;;;;;-2.76;100.00;100855.88;4192077;28;20437;-73
2023/02/07 00:22:41;;;;;;;29.60;14.43;;;;;;;-2.76;100.00;100862.13;4194982;28;20068;-73
2023/02/07 00:24:41;;;;;;;24.05;13.20;;;;;;;-2.78;100.00;100864.25;4193363;28;20101;-73
2023/02/07 00:26:42;;;;;;;25.48;13.13;;;;;;;-2.83;100.00;100859.50;4192487;28;20080;-73
2023/02/07 00:28:43;;;;;;;25.25;13.75;;;;;;;-2.87;100.00;100861.03;4196506;28;20052;-73
2023/02/07 00:30:43;;;;;;;28.25;14.50;;;;;;;-2.87;100.00;100862.94;4191424;28;20371;-73
2023/02/07 00:32:43;;;;;;;28.00;14.20;;;;;;;-2.93;100.00;100866.56;4191790;28;20040;-73
2023/02/07 00:34:46;;;;;;;28.20;14.95;;;;;;;-2.96;100.00;100865.16;4190220;28;20041;-73
2023/02/07 00:36:46;;;;;;;23.42;12.93;;;;;;;-2.99;100.00;100865.59;4197841;28;20057;-73
2023/02/07 00:38:47;;;;;;;27.02;12.73;;;;;;;-3.06;100.00;100859.47;4196131;28;20499;-72
2023/02/07 00:40:47;;;;;;;24.55;12.50;;;;;;;-3.11;100.00;100857.44;4194998;28;20041;-72
2023/02/07 00:42:48;;;;;;;27.63;13.75;;;;;;;-3.11;100.00;100857.44;4191216;28;20055;-72
2023/02/07 00:44:48;;;;;;;25.25;13.45;;;;;;;-3.14;100.00;100865.19;4191684;28;20131;-73
2023/02/07 00:46:48;;;;;;;24.70;12.95;;;;;;;-3.14;100.00;100866.03;4192208;28;20083;-72
2023/02/07 00:48:49;;;;;;;25.35;13.23;;;;;;;-3.14;100.00;100870.63;4192103;28;20049;-73
2023/02/07 00:50:50;;;;;;;23.85;12.75;;;;;;;-3.18;100.00;100864.81;4191255;28;20094;-72
2023/02/07 00:52:50;;;;;;;24.35;13.40;;;;;;;-3.24;100.00;100864.91;4191607;28;20060;-72
2023/02/07 00:54:50;;;;;;;25.35;13.50;;;;;;;-3.27;100.00;100865.38;4191350;28;20420;-73
2023/02/07 00:56:51;;;;;;;27.65;13.02;;;;;;;-3.30;100.00;100863.97;4191716;28;20473;-73
2023/02/07 00:58:51;;;;;;;25.52;12.80;;;;;;;-3.33;100.00;100858.97;4191683;28;20672;-72
2023/02/07 01:00:51;;;;;;;26.25;12.88;;;;;;;-3.35;100.00;100855.69;4191535;28;20040;-73
2023/02/07 01:02:52;;;;;;;26.98;13.50;;;;;;;-3.38;100.00;100860.75;4190825;28;20052;-73
2023/02/07 01:04:52;;;;;;;25.33;12.75;;;;;;;-3.44;100.00;100863.28;4191665;28;20132;-73
2023/02/07 01:06:52;;;;;;;25.25;12.05;;;;;;;-3.44;100.00;100852.47;4191638;28;20037;-72
2023/02/07 01:08:58;;;;;;;24.77;13.07;;;;;;;-3.51;100.00;100849.00;4191447;28;20052;-73
2023/02/07 01:11:09;;;;;;;26.80;13.82;;;;;;;-3.54;100.00;100854.91;4190808;28;20487;-73
2023/02/07 01:13:10;;;;;;;24.00;13.40;;;;;;;-3.59;100.00;100857.44;4190372;28;20052;-72
2023/02/07 01:15:10;;;;;;;25.63;12.85;;;;;;;-3.62;100.00;100857.09;4192429;28;20055;-72
2023/02/07 01:17:11;;;;;;;21.73;11.18;;;;;;;-3.69;100.00;100851.75;4191331;28;20055;-72
2023/02/07 01:19:11;;;;;;;23.70;12.02;;;;;;;-3.71;100.00;100851.16;4191845;28;20123;-72
2023/02/07 01:21:17;;;;;;;24.50;11.82;;;;;;;-3.73;100.00;100843.25;4191384;28;20040;-72
2023/02/07 01:23:18;;;;;;;24.33;11.80;;;;;;;-3.72;100.00;100844.91;4190657;28;20041;-72
2023/02/07 01:25:19;;;;;;;22.10;11.05;;;;;;;-3.77;100.00;100842.06;4192829;28;20047;-72
2023/02/07 01:27:20;;;;;;;21.23;12.00;;;;;;;-3.79;100.00;100835.22;4195546;28;20040;-72
2023/02/07 01:29:20;;;;;;;21.92;12.20;;;;;;;-3.85;100.00;100830.72;4191972;28;20052;-72
2023/02/07 01:31:22;;;;;;;21.08;11.05;;;;;;;-3.88;100.00;100826.59;4190824;28;20190;-72
2023/02/07 01:33:22;;;;;;;22.00;12.32;;;;;;;-3.92;100.00;100830.78;4190956;28;20068;-72
2023/02/07 01:35:23;;;;;;;22.90;11.85;;;;;;;-3.94;100.00;100832.91;4191041;28;20048;-72
2023/02/07 01:37:23;;;;;;;22.30;11.85;;;;;;;-3.98;100.00;100835.22;4190236;28;20040;-72
2023/02/07 01:39:24;;;;;;;25.17;12.30;;;;;;;-3.99;100.00;100838.16;4193549;28;20385;-72
2023/02/07 01:41:25;;;;;;;18.98;10.95;;;;;;;-4.03;100.00;100826.97;4195426;28;20080;-72
2023/02/07 01:43:26;;;;;;;24.97;13.30;;;;;;;-4.05;100.00;100825.53;4190358;28;20590;-72
2023/02/07 01:45:38;;;;;;;24.42;12.50;;;;;;;-4.09;100.00;100835.13;4190369;28;20085;-72
2023/02/07 01:47:38;;;;;;;21.60;11.40;;;;;;;-4.14;100.00;100830.38;4189514;28;20382;-72
2023/02/07 01:49:39;;;;;;;21.08;11.80;;;;;;;-4.18;100.00;100826.50;4194512;28;20309;-72
2023/02/07 01:51:43;;;;;;;20.85;11.65;;;;;;;-4.20;100.00;100828.59;4191199;28;20044;-72
2023/02/07 01:53:44;;;;;;;25.27;12.45;;;;;;;-4.22;100.00;100824.44;4191678;28;20052;-72
2023/02/07 01:55:47;;;;;;;25.15;11.80;;;;;;;-4.25;100.00;100823.03;4190496;28;20589;-72
2023/02/07 01:57:48;;;;;;;27.38;12.65;;;;;;;-4.27;100.00;100830.56;4190570;28;20381;-73
2023/02/07 01:59:52;;;;;;;23.27;12.15;;;;;;;-4.27;100.00;100830.56;4190801;28;20051;-73
2023/02/07 02:01:53;;;;;;;21.83;11.77;;;;;;;-4.32;100.00;100827.69;4193209;28;20068;-72
2023/02/07 02:03:55;;;;;;;27.92;12.45;;;;;;;-4.36;100.00;100818.38;4188694;28;20106;-72
2023/02/07 02:05:56;;;;;;;22.70;13.20;;;;;;;-4.39;100.00;100825.03;4190653;28;20032;-72
2023/02/07 02:07:57;;;;;;;21.10;12.05;;;;;;;-4.44;100.00;100816.78;4190324;28;20036;-73
2023/02/07 02:09:59;;;;;;;25.42;11.95;;;;;;;-4.50;100.00;100816.84;4190396;28;20166;-72
2023/02/07 02:12:30;;;;;;;22.20;11.90;;;;;;;-4.50;100.00;100816.84;4189315;28;20044;-73
2023/02/07 02:14:52;;;;;;;24.13;11.65;;;;;;;-4.54;100.00;100827.28;4190383;28;20089;-73
2023/02/07 02:17:27;;;;;;;26.00;12.65;;;;;;;-4.57;100.00;100806.91;4191116;28;20127;-73
2023/02/07 02:19:49;;;;;;;25.33;12.18;;;;;;;-4.63;100.00;100815.94;4189702;28;20481;-73
2023/02/07 02:22:17;;;;;;;24.60;12.18;;;;;;;-4.65;100.00;100815.28;4190469;28;20412;-73
2023/02/07 02:24:30;;;;;;;24.05;12.20;;;;;;;-4.66;100.00;100812.81;4191105;28;20053;-73
2023/02/07 02:27:25;;;;;;;25.33;12.63;;;;;;;-4.69;100.00;100821.38;4189801;28;20044;-73
2023/02/07 02:29:37;;;;;;;25.90;13.18;;;;;;;-4.74;100.00;100821.19;4184871;28;20617;-73
2023/02/07 02:32:02;;;;;;;25.50;13.07;;;;;;;-4.76;100.00;100815.19;4192632;28;20040;-73
2023/02/07 02:34:20;;;;;;;22.88;12.80;;;;;;;-4.80;100.00;100820.19;4189661;28;20106;-73
2023/02/07 02:36:30;;;;;;;27.98;13.73;;;;;;;-4.80;100.00;100814.78;4190969;28;20243;-73
2023/02/07 02:38:39;;;;;;;24.52;11.90;;;;;;;-4.85;100.00;100810.06;4189888;28;20507;-73
2023/02/07 02:40:48;;;;;;;25.55;14.00;;;;;;;-4.82;100.00;100800.69;4190207;28;20542;-72
2023/02/07 02:43:05;;;;;;;26.02;13.93;;;;;;;-4.85;100.00;100793.03;4189584;28;20049;-73
2023/02/07 02:45:11;;;;;;;27.48;14.60;;;;;;;-4.84;100.00;100803.63;4192324;28;20047;-73
2023/02/07 02:47:12;;;;;;;29.92;14.02;;;;;;;-4.84;100.00;100800.09;4190326;28;20511;-73
2023/02/07 02:49:15;;;;;;;26.15;13.15;;;;;;;-4.85;100.00;100804.69;4190665;28;20045;-73
2023/02/07 02:51:15;;;;;;;26.27;13.25;;;;;;;-4.89;100.00;100789.13;4190514;28;20044;-73
2023/02/07 02:53:16;;;;;;;24.33;12.93;;;;;;;-4.85;100.00;100793.03;4189672;28;20040;-73
2023/02/07 02:55:21;;;;;;;27.33;13.10;;;;;;;-4.81;100.00;100786.13;4194294;28;20117;-73
2023/02/07 02:57:58;;;;;;;27.10;14.18;;;;;;;-4.74;100.00;100792.31;4198216;28;20052;-73
2023/02/07 03:00:09;;;;;;;28.63;14.20;;;;;;;-4.76;100.00;100799.00;4192491;28;20044;-73
2023/02/07 03:02:24;;;;;;;25.08;12.57;;;;;;;-4.79;100.00;100799.44;4189282;28;20052;-73
2023/02/07 03:04:34;;;;;;;25.20;12.55;;;;;;;-4.86;100.00;100788.69;4189036;28;20057;-73
2023/02/07 03:06:43;;;;;;;28.55;12.80;;;;;;;-4.93;100.00;100780.66;4189878;28;20048;-73
2023/02/07 03:08:59;;;;;;;26.38;12.98;;;;;;;-4.97;100.00;100792.09;4189847;28;20040;-73
2023/02/07 03:11:09;;;;;;;27.27;14.55;;;;;;;-5.05;100.00;100789.66;4192812;28;20444;-73
2023/02/07 03:13:21;;;;;;;31.08;13.20;;;;;;;-5.13;100.00;100793.44;4188574;28;20494;-73
2023/02/07 03:15:30;;;;;;;24.88;12.70;;;;;;;-5.24;100.00;100789.59;4192069;28;20110;-73
2023/02/07 03:17:30;;;;;;;22.95;11.43;;;;;;;-5.28;100.00;100785.69;4190090;28;20457;-73
2023/02/07 03:19:51;;;;;;;23.23;11.50;;;;;;;-5.31;100.00;100786.09;4190080;28;20136;-73
2023/02/07 03:21:57;;;;;;;22.58;12.10;;;;;;;-5.35;100.00;100784.09;4194056;28;20090;-73
2023/02/07 03:24:02;;;;;;;23.50;12.55;;;;;;;-5.39;100.00;100784.50;4193305;28;20040;-73
2023/02/07 03:26:03;;;;;;;25.80;12.52;;;;;;;-5.40;100.00;100795.50;4194680;28;20044;-73
2023/02/07 03:28:04;;;;;;;26.53;11.90;;;;;;;-5.44;100.00;100789.72;4190215;28;20071;-73
2023/02/07 03:30:10;;;;;;;25.63;14.32;;;;;;;-5.48;100.00;100788.50;4193426;28;20029;-73
2023/02/07 03:32:12;;;;;;;24.83;12.63;;;;;;;-5.49;100.00;100803.03;4193356;28;20036;-73
2023/02/07 03:34:42;;;;;;;23.27;12.90;;;;;;;-5.45;100.00;100801.56;4190104;28;20035;-73
2023/02/07 03:36:57;;;;;;;25.45;12.15;;;;;;;-5.45;100.00;100804.28;4190005;28;20048;-73
2023/02/07 03:38:58;;;;;;;25.88;12.68;;;;;;;-5.47;100.00;100810.91;4189080;28;20065;-73
2023/02/07 03:41:05;;;;;;;25.10;13.15;;;;;;;-5.46;100.00;100802.63;4189833;28;20043;-73
2023/02/07 03:43:17;;;;;;;22.55;11.70;;;;;;;-5.53;100.00;100807.22;4190641;28;20055;-73
2023/02/07 03:45:19;;;;;;;26.75;12.57;;;;;;;-5.51;100.00;100805.13;4190881;28;20039;-73
2023/02/07 03:47:19;;;;;;;24.13;11.52;;;;;;;-5.56;100.00;100806.81;4189811;28;20792;-73
2023/02/07 03:49:20;;;;;;;24.98;12.70;;;;;;;-5.57;100.00;100802.47;4190357;28;20057;-73
2023/02/07 03:51:20;;;;;;;27.95;12.82;;;;;;;-5.64;100.00;100805.19;4194585;28;20032;-73
2023/02/07 03:53:21;;;;;;;25.70;12.55;;;;;;;-5.65;100.00;100800.84;4191696;28;20072;-73
2023/02/07 03:55:21;;;;;;;25.60;12.57;;;;;;;-5.54;100.00;100810.13;4192752;28;20495;-73
2023/02/07 03:57:22;;;;;;;28.50;13.88;;;;;;;-5.52;100.00;100808.06;4192420;28;20044;-73
2023/02/07 03:59:22;;;;;;;24.35;12.32;;;;;;;-5.55;100.00;100813.84;4192894;28;20500;-73
2023/02/07 04:01:22;;;;;;;27.73;12.00;;;;;;;-5.62;100.00;100818.47;4192852;28;20668;-74
2023/02/07 04:03:23;;;;;;;27.00;12.88;;;;;;;-5.63;100.00;100825.72;4191611;28;20075;-73
2023/02/07 04:05:24;;;;;;;24.83;12.70;;;;;;;-5.64;100.00;100824.06;4192715;28;20056;-73
2023/02/07 04:07:24;;;;;;;22.98;12.00;;;;;;;-5.72;100.00;100814.34;4191958;28;20101;-73
2023/02/07 04:09:25;;;;;;;29.23;13.40;;;;;;;-5.75;100.00;100832.84;4192741;28;20044;-73
2023/02/07 04:11:25;;;;;;;26.45;13.10;;;;;;;-5.86;100.00;100826.25;4192457;28;20589;-74
2023/02/07 04:13:25;;;;;;;27.63;12.73;;;;;;;-5.89;100.00;100823.97;4191661;28;20470;-73
2023/02/07 04:15:26;;;;;;;26.98;12.50;;;;;;;-5.97;100.00;100830.44;4193358;28;20860;-73
2023/02/07 04:17:26;;;;;;;21.70;12.63;;;;;;;-6.08;100.00;100825.72;4192558;28;20052;-74
2023/02/07 04:19:27;;;;;;;29.80;13.73;;;;;;;-6.09;100.00;100824.06;4192506;28;20048;-73
2023/02/07 04:21:27;;;;;;;28.45;13.45;;;;;;;-6.09;100.00;100817.84;4191848;28;20524;-73
2023/02/07 04:23:28;;;;;;;28.45;13.82;;;;;;;-6.10;100.00;100821.59;4191956;28;20563;-73
2023/02/07 04:25:28;;;;;;;29.23;13.60;;;;;;;-5.98;100.00;100825.28;4192133;28;20135;-74
2023/02/07 04:27:28;;;;;;;27.23;13.35;;;;;;;-6.01;100.00;100829.22;4191894;28;20047;-74
2023/02/07 04:29:29;;;;;;;27.27;13.82;;;;;;;-6.01;100.00;100823.00;4193095;28;20512;-73
2023/02/07 04:31:29;;;;;;;30.02;14.98;;;;;;;-5.97;100.00;100829.63;4191652;28;20539;-74
2023/02/07 04:33:29;;;;;;;25.58;13.60;;;;;;;-5.95;100.00;100814.91;4191371;28;20077;-74
2023/02/07 04:35:30;;;;;;;29.55;14.15;;;;;;;-5.97;100.00;100818.84;4194345;28;20052;-74
2023/02/07 04:37:30;;;;;;;28.92;13.40;;;;;;;-5.93;100.00;100809.31;4191674;28;20384;-74
2023/02/07 04:39:30;;;;;;;29.73;13.93;;;;;;;-5.87;100.00;100823.78;4192053;28;20051;-73
2023/02/07 04:41:31;;;;;;;29.15;15.15;;;;;;;-5.86;100.00;100812.78;4194900;28;20056;-73
2023/02/07 04:43:33;;;;;;;31.67;14.90;;;;;;;-5.84;100.00;100813.38;4190874;28;20509;-74
2023/02/07 04:45:33;;;;;;;34.58;17.52;;;;;;;-5.85;100.00;100829.78;4191881;28;20053;-74
2023/02/07 04:47:33;;;;;;;35.08;16.35;;;;;;;-5.80;100.00;100819.16;4192073;28;20032;-74
2023/02/07 04:49:34;;;;;;;37.55;16.98;;;;;;;-5.73;100.00;100836.97;4192100;28;20222;-74
2023/02/07 04:51:34;;;;;;;33.92;16.08;;;;;;;-5.76;100.00;100836.59;4191558;28;20036;-73
2023/02/07 04:53:35;;;;;;;38.00;16.40;;;;;;;-5.78;100.00;100839.50;4191316;28;20112;-74
2023/02/07 04:55:36;;;;;;;33.25;16.58;;;;;;;-5.74;100.00;100837.19;4191436;28;20056;-74
2023/02/07 04:57:36;;;;;;;32.53;16.67;;;;;;;-5.77;100.00;100835.75;4191804;28;20083;-74
2023/02/07 04:59:36;;;;;;;33.50;16.77;;;;;;;-5.81;100.00;100839.06;4191082;28;20057;-73
2023/02/07 05:01:37;;;;;;;34.88;16.58;;;;;;;-5.81;100.00;100833.69;4192664;28;20572;-73
2023/02/07 05:03:37;;;;;;;38.50;17.35;;;;;;;-5.81;100.00;100839.06;4191729;28;20129;-74
2023/02/07 05:05:41;;;;;;;35.72;15.82;;;;;;;-5.76;100.00;100842.78;4195207;28;20488;-73
2023/02/07 05:07:42;;;;;;;30.35;15.65;;;;;;;-5.81;100.00;100845.28;4192863;28;20592;-74
2023/02/07 05:09:42;;;;;;;30.80;14.82;;;;;;;-5.84;100.00;100853.00;4197503;28;20367;-74
2023/02/07 05:11:42;;;;;;;30.40;15.00;;;;;;;-5.86;100.00;100847.81;4193071;28;20056;-74
2023/02/07 05:13:43;;;;;;;35.15;15.80;;;;;;;-5.85;100.00;100851.34;4188210;28;20131;-73
2023/02/07 05:15:43;;;;;;;29.33;14.38;;;;;;;-5.89;100.00;100852.78;4196526;28;20124;-74
2023/02/07 05:17:43;;;;;;;31.42;15.20;;;;;;;-5.87;100.00;100861.53;4193719;28;20119;-74
2023/02/07 05:19:44;;;;;;;35.88;15.57;;;;;;;-5.83;100.00;100860.03;4194319;28;20467;-73
2023/02/07 05:21:44;;;;;;;30.27;14.82;;;;;;;-5.88;100.00;100862.53;4194843;28;20044;-74
2023/02/07 05:23:45;;;;;;;28.75;14.55;;;;;;;-5.95;100.00;100868.00;4193352;28;20040;-74
2023/02/07 05:25:48;;;;;;;32.63;15.13;;;;;;;-5.97;100.00;100878.97;4192344;28;20501;-74
2023/02/07 05:27:48;;;;;;;;;;;;;;;-5.95;100.00;100881.47;4193591;28;20045;-74
2023/02/07 05:29:48;;;;;;;37.90;15.32;;;;;;;-5.97;100.00;100872.75;4193772;28;19919;-74
2023/02/07 05:34:08;;;;;;;33.70;16.70;;;;;;;-5.87;100.00;100867.75;4189032;28;20458;-74
2023/02/07 05:36:08;;;;;;;32.53;15.27;;;;;;;-5.89;100.00;100869.78;4183305;28;20028;-73
2023/02/07 05:38:15;;;;;;;34.03;17.73;;;;;;;-5.88;100.00;100871.44;4189907;28;20120;-74
2023/02/07 05:40:15;;;;;;;31.95;16.80;;;;;;;-5.87;100.00;100872.31;4190703;28;20131;-74
2023/02/07 05:42:16;;;;;;;41.28;18.05;;;;;;;-5.91;100.00;100871.09;4183689;28;20060;-73
2023/02/07 05:44:16;;;;;;;37.58;17.83;;;;;;;-5.87;100.00;100875.00;4186375;28;20127;-74
2023/02/07 05:46:16;;;;;;;36.65;17.90;;;;;;;-5.89;100.00;100869.78;4195470;28;20050;-74
2023/02/07 05:48:17;;;;;;;33.10;17.17;;;;;;;-5.91;100.00;100874.59;4192242;28;20043;-74
2023/02/07 05:50:18;;;;;;;29.17;15.00;;;;;;;-5.91;100.00;100877.31;4188524;28;20029;-73
2023/02/07 05:52:18;;;;;;;34.85;16.42;;;;;;;-5.88;100.00;100878.72;4183841;28;20218;-73
2023/02/07 05:54:19;;;;;;;33.70;16.23;;;;;;;-5.93;100.00;100875.88;4181356;28;20044;-73
2023/02/07 05:56:19;;;;;;;35.03;16.38;;;;;;;-5.97;100.00;100878.97;4091169;28;20167;-73
2023/02/07 05:58:19;;;;;;;32.28;15.48;;;;;;;-6.03;100.00;100896.00;4187218;28;20296;-74
2023/02/07 06:00:20;;;;;;;35.47;16.73;;;;;;;-6.09;100.00;100882.53;4184854;28;20044;-74
2023/02/07 06:02:20;;;;;;;31.25;14.73;;;;;;;-6.12;100.00;100883.78;4186390;28;20032;-74
2023/02/07 06:04:20;;;;;;;35.85;17.00;;;;;;;-6.14;100.00;100890.41;4187665;28;20732;-73
2023/02/07 06:06:21;;;;;;;33.95;16.48;;;;;;;-6.12;100.00;100888.31;4188960;28;20068;-73
2023/02/07 06:08:21;;;;;;;31.98;15.07;;;;;;;-6.14;100.00;100888.53;4189127;28;20048;-74
2023/02/07 06:10:21;;;;;;;33.28;14.98;;;;;;;-6.17;100.00;100888.16;4186800;28;20085;-74
2023/02/07 06:12:22;;;;;;;28.58;15.32;;;;;;;-6.17;100.00;100893.53;4187107;28;20181;-74
2023/02/07 06:14:22;;;;;;;29.25;14.52;;;;;;;-6.21;100.00;100887.72;4186394;28;20059;-73
2023/02/07 06:16:23;;;;;;;31.90;15.45;;;;;;;-6.22;100.00;100884.19;4186800;28;20048;-74
2023/02/07 06:18:23;;;;;;;28.73;14.68;;;;;;;-6.26;100.00;100888.38;4194717;28;20351;-73
2023/02/07 06:20:24;;;;;;;26.80;13.32;;;;;;;-6.27;100.00;100883.19;4194786;28;20115;-74
2023/02/07 06:22:24;;;;;;;34.03;14.90;;;;;;;-6.34;100.00;100883.19;4188942;28;20048;-74
2023/02/07 06:24:24;;;;;;;33.40;15.95;;;;;;;-6.44;100.00;100882.78;4188378;28;20131;-74
2023/02/07 06:26:25;;;;;;;33.22;15.10;;;;;;;-6.51;100.00;100881.97;4197109;28;20057;-74
2023/02/07 06:28:25;;;;;;;32.97;14.52;;;;;;;-6.45;100.00;100886.53;4195693;28;20466;-74
2023/02/07 06:30:25;;;;;;;33.65;16.13;;;;;;;-6.44;100.00;100888.19;4189552;28;20473;-75
2023/02/07 06:32:26;;;;;;;31.60;15.60;;;;;;;-6.41;100.00;100898.53;4186174;28;20051;-74
2023/02/07 06:34:26;;;;;;;28.58;14.35;;;;;;;-6.39;100.00;100904.53;4187042;28;20098;-74
2023/02/07 06:36:26;;;;;;;30.02;14.80;;;;;;;-6.46;100.00;100902.88;4190031;28;20446;-74
2023/02/07 06:38:27;;;;;;;30.98;15.32;;;;;;;-6.46;100.00;100897.47;4193642;28;20032;-73
2023/02/07 06:40:27;;;;;;;32.03;15.65;;;;;;;-6.45;100.00;100893.75;4191387;28;20097;-74
2023/02/07 06:42:28;;;;;;;33.05;14.20;;;;;;;-6.49;100.00;100898.75;4190190;28;20094;-74
2023/02/07 06:44:28;;;;;;;30.27;14.93;;;;;;;-6.55;100.00;100907.63;4193617;28;20048;-73
2023/02/07 06:46:28;;;;;;;31.98;15.15;;;;;;;-6.58;100.00;100911.59;4191043;28;20046;-74
2023/02/07 06:48:29;;;;;;;32.15;14.40;;;;;;;-6.62;100.00;100906.81;4191295;28;20041;-74
2023/02/07 06:50:30;;;;;;;28.73;13.30;;;;;;;-6.60;100.00;100891.28;4189163;28;20090;-74
2023/02/07 06:52:30;;;;;;;30.98;14.73;;;;;;;-6.55;100.00;100896.88;4190113;28;20079;-74
2023/02/07 06:54:30;;;;;;;29.08;14.57;;;;;;;-6.58;100.00;100905.38;4190180;28;20053;-74
2023/02/07 06:56:31;;;;;;;29.98;14.27;;;;;;;-6.58;100.00;100903.50;4190379;28;20093;-75
2023/02/07 06:58:31;;;;;;;32.08;15.35;;;;;;;-6.62;100.00;100899.59;4192621;28;20079;-75
2023/02/07 07:00:31;;;;;;;32.33;14.73;;;;;;;-6.67;100.00;100912.00;4189939;28;20429;-75
2023/02/07 07:02:32;;;;;;;31.08;15.07;;;;;;;-6.76;100.00;100905.97;4189278;28;20045;-75
2023/02/07 07:04:32;;;;;;;32.95;14.52;;;;;;;-6.76;100.00;100913.22;4190404;28;20044;-75
2023/02/07 07:06:32;;;;;;;31.35;14.40;;;;;;;-6.79;100.00;100909.06;4192165;28;20398;-75
2023/02/07 07:08:33;;;;;;;35.63;16.30;;;;;;;-6.74;100.00;100909.28;4194071;28;20032;-75
2023/02/07 07:10:33;;;;;;;27.48;13.20;;;;;;;-6.79;100.00;100914.44;4190130;28;20044;-74
2023/02/07 07:12:33;;;;;;;36.05;15.52;;;;;;;-6.81;100.00;100920.03;4189620;28;20526;-75
2023/02/07 07:14:34;;;;;;;31.48;15.23;;;;;;;-6.82;100.00;100928.34;4191058;28;20108;-74
2023/02/07 07:16:35;;;;;;;32.58;15.82;;;;;;;-6.82;100.00;100925.63;4191124;28;20024;-74
2023/02/07 07:18:37;;;;;;;35.65;14.45;;;;;;;-6.86;100.00;100935.19;4190160;28;20036;-74
2023/02/07 07:20:37;;;;;;;33.00;14.95;;;;;;;-6.92;100.00;100936.81;4190084;28;20102;-74
2023/02/07 07:22:38;;;;;;;33.92;14.57;;;;;;;-6.92;100.00;100928.72;4189536;28;20106;-75
2023/02/07 07:24:38;;;;;;;35.90;15.35;;;;;;;-6.87;100.00;100926.28;4190801;28;20309;-75
2023/02/07 07:26:38;;;;;;;36.10;15.13;;;;;;;-6.78;100.00;100913.44;4193587;28;20120;-74
2023/02/07 07:28:38;;;;;;;33.20;15.65;;;;;;;-6.75;100.00;100912.19;4193411;28;20125;-74
2023/02/07 07:30:39;;;;;;;34.13;14.75;;;;;;;-6.78;100.00;100916.13;4192834;28;20461;-74
2023/02/07 07:32:39;;;;;;;32.58;14.48;;;;;;;-6.75;100.00;100917.59;4193048;28;20378;-75
2023/02/07 07:34:40;;;;;;;26.48;13.20;;;;;;;-6.69;100.00;100912.22;4194744;28;20127;-74
2023/02/07 07:36:40;;;;;;;31.90;14.85;;;;;;;-6.65;100.00;100904.53;4198229;28;20040;-74
2023/02/07 07:38:40;;;;;;;35.25;14.73;;;;;;;-6.62;100.00;100914.88;4200743;28;20522;-74
2023/02/07 07:40:41;;;;;;;33.13;14.45;;;;;;;-6.62;100.00;100913.03;4192909;28;20138;-75
2023/02/07 07:42:41;;;;;;;31.75;15.15;;;;;;;-6.62;100.00;100918.44;4190841;28;20385;-75
2023/02/07 07:44:41;;;;;;;30.20;16.15;;;;;;;-6.56;100.00;100920.28;4192859;28;20059;-74
2023/02/07 07:46:42;;;;;;;32.58;15.00;;;;;;;-6.56;100.00;100916.75;4193117;28;20035;-75
2023/02/07 07:48:42;;;;;;;34.58;15.68;;;;;;;-6.47;100.00;100920.91;4192635;28;20036;-74
2023/02/07 07:50:42;;;;;;;30.60;16.35;;;;;;;-6.51;100.00;100916.97;4194512;28;20047;-75
2023/02/07 07:52:43;;;;;;;29.60;13.25;;;;;;;-6.55;100.00;100927.31;4193926;28;20036;-75
2023/02/07 07:54:43;;;;;;;31.25;14.88;;;;;;;-6.61;100.00;100919.25;4191164;28;20056;-75
2023/02/07 07:56:43;;;;;;;29.15;13.77;;;;;;;-6.65;100.00;100928.78;4192990;28;20051;-74
2023/02/07 07:58:44;;;;;;;30.88;13.57;;;;;;;-6.72;100.00;100919.84;4193024;28;20068;-75
2023/02/07 08:00:46;;;;;;;28.70;15.38;;;;;;;-6.71;100.00;100913.44;4192031;28;20308;-74
2023/02/07 08:02:46;;;;;;;24.85;13.77;;;;;;;-6.70;100.00;100915.94;4192281;28;20045;-74
2023/02/07 08:04:46;;;;;;;39.50;15.40;;;;;;;-6.61;100.00;100922.78;4193146;28;20513;-74
2023/02/07 08:06:47;;;;;;;34.45;14.25;;;;;;;-6.56;100.00;100914.06;4192624;28;20040;-75
2023/02/07 08:08:47;;;;;;;36.65;15.38;;;;;;;-6.51;100.00;100916.97;4192691;28;20110;-74
2023/02/07 08:10:48;;;;;;;31.50;15.43;;;;;;;-6.53;100.00;100911.81;4198484;28;20044;-75
2023/02/07 08:12:48;;;;;;;35.22;14.70;;;;;;;-6.44;100.00;100914.28;4191944;28;20470;-75
2023/02/07 08:14:49;;;;;;;31.50;15.85;;;;;;;-6.40;100.00;100907.44;4192379;28;20075;-74
2023/02/07 08:16:49;;;;;;;32.95;14.98;;;;;;;-6.37;100.00;100915.09;4193701;28;20052;-75
2023/02/07 08:18:49;;;;;;;31.75;14.95;;;;;;;-6.38;100.00;100916.13;4192864;28;20663;-74
2023/02/07 08:20:50;;;;;;;29.92;14.63;;;;;;;-6.30;100.00;100916.75;4192323;28;20133;-74
2023/02/07 08:22:51;;;;;;;34.45;15.65;;;;;;;-6.18;100.00;100910.75;4191745;28;20060;-74
2023/02/07 08:24:52;;;;;;;32.90;15.90;;;;;;;-6.17;100.00;100907.84;4192532;28;20051;-75
2023/02/07 08:26:52;;;;;;;31.05;14.85;;;;;;;-6.15;100.00;100902.22;4191901;28;20080;-75
2023/02/07 08:28:52;;;;;;;34.13;15.75;;;;;;;-6.10;100.00;100897.06;4192057;28;20071;-74
2023/02/07 08:30:53;;;;;;;30.23;15.02;;;;;;;-6.08;100.00;100894.97;4191757;28;20544;-75
2023/02/07 08:32:54;;;;;;;30.25;15.00;;;;;;;-6.00;100.00;100889.34;4192041;28;20048;-74
2023/02/07 08:34:54;;;;;;;29.27;14.68;;;;;;;-5.93;100.00;100886.66;4191426;28;20040;-74
2023/02/07 08:36:55;;;;;;;29.95;14.15;;;;;;;-5.94;100.00;100888.53;4195614;28;20167;-74
2023/02/07 08:38:55;;;;;;;30.85;14.90;;;;;;;-5.89;100.00;100894.06;4193660;28;20071;-74
2023/02/07 08:40:55;;;;;;;38.13;15.77;;;;;;;-5.89;100.00;100893.22;4191982;28;20064;-74
2023/02/07 08:42:56;;;;;;;34.60;15.50;;;;;;;-5.93;100.00;100898.25;4191216;28;20040;-75
2023/02/07 08:44:56;;;;;;;33.95;16.23;;;;;;;-5.92;100.00;100891.81;4191801;28;20301;-74
2023/02/07 08:46:57;;;;;;;28.27;13.88;;;;;;;-5.92;100.00;100883.75;4192141;28;20451;-74
2023/02/07 08:48:57;;;;;;;30.38;15.43;;;;;;;-5.89;100.00;100882.44;4197359;28;20051;-75
2023/02/07 08:51:03;;;;;;;30.33;15.15;;;;;;;-5.90;100.00;100881.63;4191193;28;20056;-74
2023/02/07 08:53:04;;;;;;;29.88;14.55;;;;;;;-5.86;100.00;100887.44;4191584;28;20101;-75
2023/02/07 08:55:04;;;;;;;32.85;14.65;;;;;;;-5.85;100.00;100883.69;4191637;28;20501;-75
2023/02/07 08:57:05;;;;;;;33.22;14.90;;;;;;;-5.84;100.00;100893.44;4191399;28;20045;-74
2023/02/07 08:59:05;;;;;;;27.40;13.52;;;;;;;-5.81;100.00;100890.31;4192895;28;20059;-75
2023/02/07 09:01:09;;;;;;;27.92;14.65;;;;;;;-5.77;100.00;100895.06;4191769;28;20044;-74
2023/02/07 09:03:10;;;;;;;33.85;14.45;;;;;;;-5.70;100.00;100901.28;4192534;28;20056;-74
2023/02/07 09:05:11;;;;;;;29.52;13.95;;;;;;;-5.69;100.00;100904.81;4194494;28;20091;-74
2023/02/07 09:07:11;;;;;;;31.83;15.27;;;;;;;-5.63;100.00;100905.81;4194855;28;20051;-74
2023/02/07 09:09:12;;;;;;;29.10;15.18;;;;;;;-5.58;100.00;100904.13;4192332;28;20385;-75
2023/02/07 09:11:12;;;;;;;35.47;15.88;;;;;;;-5.54;100.00;100899.97;4192140;28;20599;-75
2023/02/07 09:13:12;;;;;;;33.03;15.05;;;;;;;-5.50;100.00;100900.38;4190183;28;20124;-75